Terminal Aerodrome Forecast
Issued by NWS Cheyenne, WY

Home | Current Version | Previous Version | Text Only | Print | Product List | Glossary On
Versions: 1 2 3 4 5 6 7 8 9 10 11 12 13 14
000
FTUS45 KCYS 191737
TAFCYS
TAF
KCYS 191737Z 1918/2018 18012KT P6SM SCT120 BKN200
     FM192300 25012KT P6SM BKN100 OVC150
     FM200300 30018G28KT P6SM VCSH BKN040 OVC080
     FM200900 30025G35KT P6SM SCT200=

USA.gov is the U.S. government's official web portal to all federal, state and local government web resources and services.